Terminal Aerodrome Forecast
Issued by NWS Charleston, WV

Home | Current Version | Previous Version | Text Only | Print | Product List | Glossary On
Versions: 1 2 3 4 5 6 7 8 9 10 11 12 13 14 15 16 17 18 19 20 21 22
000
FTUS41 KRLX 290856 AAA
TAFEKN
TAF AMD
KEKN 290856Z 2909/3006 27008KT P6SM SCT015
      TEMPO 2909/2913 BKN015
     FM291300 27004KT P6SM BKN015
      TEMPO 2913/2916 BKN025
     FM291600 28005KT P6SM BKN035
     FM300000 VRB03KT P6SM FEW250=

USA.gov is the U.S. government's official web portal to all federal, state and local government web resources and services.